createdAt,value
2023-03-14T00:01:41.938Z,99716.88
2023-03-14T00:04:09.510Z,99712.84
2023-03-14T00:06:36.741Z,99704.53
2023-03-14T00:09:04.196Z,99702.00
2023-03-14T00:11:32.082Z,99687.97
2023-03-14T00:14:00.560Z,99687.25
2023-03-14T00:16:27.957Z,99679.00
2023-03-14T00:18:55.441Z,99676.34
2023-03-14T00:21:22.653Z,99681.13
2023-03-14T00:23:49.828Z,99683.75
2023-03-14T00:26:20.264Z,99669.88
2023-03-14T00:28:47.935Z,99664.38
2023-03-14T00:31:17.868Z,99651.91
2023-03-14T00:33:46.064Z,99657.28
2023-03-14T00:36:15.955Z,99647.94
2023-03-14T00:38:44.749Z,99647.31
2023-03-14T00:41:14.919Z,99649.91
2023-03-14T00:43:42.587Z,99631.94
2023-03-14T00:46:10.119Z,99633.38
2023-03-14T00:48:37.867Z,99626.87
2023-03-14T00:51:06.178Z,99632.81
2023-03-14T00:53:36.885Z,99625.88
2023-03-14T00:56:06.268Z,99627.47
2023-03-14T00:58:33.547Z,99619.97
2023-03-14T01:01:06.658Z,99630.59
2023-03-14T01:03:34.125Z,99630.78
2023-03-14T01:06:14.813Z,99629.97
2023-03-14T01:08:44.409Z,99622.09
2023-03-14T01:11:14.318Z,99614.25
2023-03-14T01:13:41.494Z,99614.88
2023-03-14T01:16:10.840Z,99599.81
2023-03-14T01:18:39.338Z,99596.19
2023-03-14T01:21:25.237Z,99602.78
2023-03-14T01:23:54.295Z,99596.72
2023-03-14T01:26:23.942Z,99593.28
2023-03-14T01:28:54.049Z,99598.72
2023-03-14T01:31:22.427Z,99582.25
2023-03-14T01:33:49.683Z,99583.28
2023-03-14T01:36:17.176Z,99560.72
2023-03-14T01:38:45.284Z,99556.28
2023-03-14T01:41:24.828Z,99558.87
2023-03-14T01:43:53.665Z,99568.28
2023-03-14T01:46:39.002Z,99568.75
2023-03-14T01:49:25.074Z,99565.69
2023-03-14T01:52:09.067Z,99549.91
2023-03-14T01:54:44.838Z,99542.44
2023-03-14T01:57:31.451Z,99540.78
2023-03-14T02:00:02.511Z,99532.69
2023-03-14T02:03:02.987Z,99525.59
2023-03-14T02:05:34.069Z,99513.59
2023-03-14T02:08:03.833Z,99516.34
2023-03-14T02:10:34.068Z,99504.69
2023-03-14T02:13:04.231Z,99509.84
2023-03-14T02:15:32.616Z,99498.75
2023-03-14T02:18:01.168Z,99503.06
2023-03-14T02:20:37.439Z,99499.72
2023-03-14T02:23:05.098Z,99493.38
2023-03-14T02:25:39.547Z,99485.75
2023-03-14T02:28:07.019Z,99489.72
2023-03-14T02:30:36.300Z,99480.34
2023-03-14T02:33:06.855Z,99486.09
2023-03-14T02:35:44.980Z,99468.19
2023-03-14T02:38:27.242Z,99473.31
2023-03-14T02:40:54.642Z,99473.59
2023-03-14T02:43:22.017Z,99468.28
2023-03-14T02:45:51.260Z,99460.47
2023-03-14T02:48:26.415Z,99442.78
2023-03-14T02:50:55.716Z,99446.44
2023-03-14T02:53:27.469Z,99442.03
2023-03-14T02:55:55.857Z,99429.47
2023-03-14T02:58:24.324Z,99416.91
2023-03-14T03:00:51.747Z,99423.00
2023-03-14T03:03:19.304Z,99405.69
2023-03-14T03:05:53.880Z,99414.34
2023-03-14T03:08:22.866Z,99409.00
2023-03-14T03:10:51.581Z,99407.34
2023-03-14T03:13:18.956Z,99406.19
2023-03-14T03:15:46.768Z,99405.69
2023-03-14T03:18:14.171Z,99407.22
2023-03-14T03:20:43.054Z,99415.91
2023-03-14T03:23:10.151Z,99408.06
2023-03-14T03:25:38.924Z,99405.72
2023-03-14T03:28:08.761Z,99409.53
2023-03-14T03:30:40.507Z,99404.78
2023-03-14T03:33:08.617Z,99393.69
2023-03-14T03:35:35.948Z,99396.34
2023-03-14T03:38:03.516Z,99395.03
2023-03-14T03:40:31.584Z,99393.63
2023-03-14T03:42:58.800Z,99391.09
2023-03-14T03:45:26.422Z,99393.13
2023-03-14T03:47:55.291Z,99393.19
2023-03-14T03:50:23.730Z,99391.25
2023-03-14T03:52:50.920Z,99390.00
2023-03-14T03:55:18.304Z,99395.16
2023-03-14T03:57:46.430Z,99399.19
2023-03-14T04:00:13.884Z,99390.91
2023-03-14T04:02:41.241Z,99401.50
2023-03-14T04:05:09.471Z,99401.31
2023-03-14T04:07:36.996Z,99400.97
2023-03-14T04:10:05.685Z,99397.47
2023-03-14T04:12:33.658Z,99398.72
2023-03-14T04:15:01.532Z,99396.41
2023-03-14T04:17:28.693Z,99384.69
2023-03-14T04:19:56.145Z,99384.97
2023-03-14T04:22:24.373Z,99391.59
2023-03-14T04:24:51.590Z,99406.19
2023-03-14T04:27:19.922Z,99411.25
2023-03-14T04:29:47.683Z,99415.94
2023-03-14T04:32:15.248Z,99409.75
2023-03-14T04:34:43.183Z,99416.41
2023-03-14T04:37:10.251Z,99403.41
2023-03-14T04:39:37.653Z,99400.13
2023-03-14T04:42:06.817Z,99395.31
2023-03-14T04:44:35.515Z,99403.66
2023-03-14T04:47:02.693Z,99401.78
2023-03-14T04:49:30.613Z,99404.28
2023-03-14T04:51:57.776Z,99404.19
2023-03-14T04:54:25.593Z,99400.06
2023-03-14T04:56:53.471Z,99405.25
2023-03-14T04:59:20.807Z,99400.25
2023-03-14T05:01:49.708Z,99386.88
2023-03-14T05:04:19.361Z,99384.53
2023-03-14T05:06:47.192Z,99384.22
2023-03-14T05:09:16.118Z,99383.66
2023-03-14T05:11:44.291Z,99382.81
2023-03-14T05:14:11.537Z,99385.41
2023-03-14T05:16:39.337Z,99386.34
2023-03-14T05:19:07.617Z,99392.84
2023-03-14T05:21:35.398Z,99390.94
2023-03-14T05:24:03.741Z,99378.50
2023-03-14T05:26:31.542Z,99367.34
2023-03-14T05:28:58.848Z,99371.34
2023-03-14T05:31:26.104Z,99368.63
2023-03-14T05:33:54.049Z,99369.06
2023-03-14T05:36:24.101Z,99374.63
2023-03-14T05:38:51.801Z,99365.88
2023-03-14T05:41:20.668Z,99378.50
2023-03-14T05:43:48.974Z,99373.34
2023-03-14T05:46:16.557Z,99370.75
2023-03-14T05:48:44.068Z,99366.78
2023-03-14T05:51:11.536Z,99359.59
2023-03-14T05:53:38.786Z,99353.28
2023-03-14T05:56:11.177Z,99355.09
2023-03-14T05:58:39.415Z,99369.06
2023-03-14T06:01:07.584Z,99373.72
2023-03-14T06:03:36.430Z,99378.47
2023-03-14T06:06:04.362Z,99380.00
2023-03-14T06:08:31.467Z,99380.16
2023-03-14T06:10:59.470Z,99377.31
2023-03-14T06:13:27.133Z,99389.84
2023-03-14T06:15:54.291Z,99383.50
2023-03-14T06:18:21.911Z,99387.44
2023-03-14T06:20:49.423Z,99384.44
2023-03-14T06:23:19.268Z,99376.06
2023-03-14T06:25:47.158Z,99375.16
2023-03-14T06:28:14.399Z,99372.50
2023-03-14T06:30:41.910Z,99374.13
2023-03-14T06:33:09.604Z,99368.63
2023-03-14T06:35:37.109Z,99366.59
2023-03-14T06:38:04.284Z,99366.53
2023-03-14T06:40:31.785Z,99372.69
2023-03-14T06:42:59.562Z,99367.75
2023-03-14T06:45:26.956Z,99367.97
2023-03-14T06:47:54.729Z,99364.19
2023-03-14T06:50:23.201Z,99372.97
2023-03-14T06:52:50.391Z,99361.94
2023-03-14T06:55:20.092Z,99369.37
2023-03-14T06:57:48.453Z,99384.44
2023-03-14T07:00:15.976Z,99366.34
2023-03-14T07:02:43.711Z,99366.78
2023-03-14T07:05:15.039Z,99379.50
2023-03-14T07:07:42.445Z,99377.72
2023-03-14T07:10:11.473Z,99372.38
2023-03-14T07:12:38.690Z,99376.31
2023-03-14T07:15:17.761Z,99368.97
2023-03-14T07:17:49.204Z,99366.94
2023-03-14T07:20:18.433Z,99375.66
2023-03-14T07:22:49.244Z,99380.22
2023-03-14T07:25:17.806Z,99382.84
2023-03-14T07:27:46.038Z,99382.13
2023-03-14T07:30:14.141Z,99362.78
2023-03-14T07:32:41.509Z,99368.41
2023-03-14T07:35:09.228Z,99373.28
2023-03-14T07:37:37.137Z,99362.63
2023-03-14T07:40:08.099Z,99348.09
2023-03-14T07:42:35.898Z,99350.38
2023-03-14T07:45:12.187Z,99349.00
2023-03-14T07:47:39.787Z,99337.69
2023-03-14T07:50:07.567Z,99336.09
2023-03-14T07:52:34.749Z,99332.41
2023-03-14T07:55:01.888Z,99332.38
2023-03-14T07:57:31.013Z,99331.41
2023-03-14T07:59:58.127Z,99321.41
2023-03-14T08:02:25.662Z,99324.44
2023-03-14T08:04:53.132Z,99327.31
2023-03-14T08:07:20.225Z,99315.06
2023-03-14T08:09:47.382Z,99309.94
2023-03-14T08:12:14.937Z,99299.69
2023-03-14T08:14:42.597Z,99295.50
2023-03-14T08:17:10.188Z,99288.84
2023-03-14T08:19:37.604Z,99297.09
2023-03-14T08:22:05.612Z,99284.31
2023-03-14T08:24:32.695Z,99286.09
2023-03-14T08:27:00.102Z,99301.72
2023-03-14T08:29:27.390Z,99282.38
2023-03-14T08:31:55.934Z,99283.25
2023-03-14T08:34:23.434Z,99290.84
2023-03-14T08:36:57.805Z,99295.13
2023-03-14T08:39:25.547Z,99310.84
2023-03-14T08:41:52.769Z,99298.00
2023-03-14T08:44:20.994Z,99295.97
2023-03-14T08:46:48.587Z,99291.59
2023-03-14T08:49:16.022Z,99287.03
2023-03-14T08:51:43.425Z,99291.91
2023-03-14T08:54:13.746Z,99283.00
2023-03-14T08:56:41.105Z,99277.75
2023-03-14T08:59:09.198Z,99271.75
2023-03-14T09:01:36.592Z,99266.88
2023-03-14T09:04:03.998Z,99258.91
2023-03-14T09:06:33.892Z,99237.16
2023-03-14T09:09:01.306Z,99240.69
2023-03-14T09:11:28.539Z,99238.72
2023-03-14T09:13:55.689Z,99232.00
2023-03-14T09:16:24.154Z,99236.22
2023-03-14T09:18:51.393Z,99218.69
2023-03-14T09:21:18.460Z,99223.78
2023-03-14T09:23:46.853Z,99221.75
2023-03-14T09:26:14.191Z,99234.78
2023-03-14T09:28:41.373Z,99246.34
2023-03-14T09:31:10.993Z,99234.09
2023-03-14T09:33:38.482Z,99214.38
2023-03-14T09:36:06.585Z,99212.22
2023-03-14T09:38:34.227Z,99214.84
2023-03-14T09:41:02.560Z,99213.56
2023-03-14T09:43:31.832Z,99210.84
2023-03-14T09:46:00.975Z,99193.13
2023-03-14T09:48:30.965Z,99183.50
2023-03-14T09:51:01.130Z,99183.00
2023-03-14T09:53:35.693Z,99175.28
2023-03-14T09:56:03.238Z,99172.47
2023-03-14T09:58:30.792Z,99180.69
2023-03-14T10:00:58.329Z,99163.28
2023-03-14T10:03:36.102Z,99161.94
2023-03-14T10:06:09.934Z,99165.03
2023-03-14T10:08:41.075Z,99166.16
2023-03-14T10:11:16.295Z,99159.75
2023-03-14T10:14:02.063Z,99148.06
2023-03-14T10:16:31.322Z,99160.38
2023-03-14T10:19:07.596Z,99148.81
2023-03-14T10:21:42.482Z,99141.59
2023-03-14T10:24:29.938Z,99133.84
2023-03-14T10:27:03.351Z,99138.91
2023-03-14T10:29:32.464Z,99134.09
2023-03-14T10:32:08.809Z,99144.12
2023-03-14T10:34:38.561Z,99138.81
2023-03-14T10:37:26.882Z,99127.28
2023-03-14T10:39:56.581Z,99134.16
2023-03-14T10:42:35.661Z,99131.69
2023-03-14T10:45:06.213Z,99128.78
2023-03-14T10:47:33.617Z,99123.00
2023-03-14T10:50:30.542Z,99119.00
2023-03-14T10:53:03.310Z,99120.50
2023-03-14T10:55:41.328Z,99109.63
2023-03-14T10:58:27.125Z,99101.06
2023-03-14T11:01:04.237Z,99095.75
2023-03-14T11:03:35.953Z,99096.69
2023-03-14T11:06:11.160Z,99083.31
2023-03-14T11:09:03.248Z,99089.62
2023-03-14T11:11:31.228Z,99076.38
2023-03-14T11:14:22.066Z,99064.63
2023-03-14T11:17:27.618Z,99069.25
2023-03-14T11:20:22.713Z,99062.16
2023-03-14T11:23:01.174Z,99060.88
2023-03-14T11:25:59.800Z,99057.25
2023-03-14T11:28:41.200Z,99058.16
2023-03-14T11:31:22.475Z,99041.22
2023-03-14T11:34:13.634Z,99042.59
2023-03-14T11:36:54.321Z,99030.38
2023-03-14T11:39:21.983Z,99026.50
2023-03-14T11:41:54.144Z,99027.38
2023-03-14T11:44:26.602Z,99031.34
2023-03-14T11:47:22.033Z,99028.53
2023-03-14T11:49:58.028Z,99027.88
2023-03-14T11:52:36.743Z,99015.13
2023-03-14T11:55:03.923Z,99013.50
2023-03-14T11:57:31.575Z,99008.63
2023-03-14T12:00:01.374Z,99000.59
2023-03-14T12:03:05.906Z,98991.44
2023-03-14T12:05:54.473Z,98986.16
2023-03-14T12:08:45.028Z,98983.88
2023-03-14T12:11:15.530Z,98977.69
2023-03-14T12:13:47.981Z,98975.16
2023-03-14T12:16:25.037Z,98975.91
2023-03-14T12:18:53.767Z,98966.34
2023-03-14T12:21:21.565Z,98975.59
2023-03-14T12:23:48.691Z,98968.16
2023-03-14T12:26:19.814Z,98962.66
2023-03-14T12:28:52.656Z,98960.19
2023-03-14T12:31:32.515Z,98950.94
2023-03-14T12:34:13.052Z,98953.75
2023-03-14T12:36:43.262Z,98946.28
2023-03-14T12:39:44.923Z,98943.66
2023-03-14T12:42:14.913Z,98945.94
2023-03-14T12:44:44.029Z,98940.72
2023-03-14T12:47:20.542Z,98931.66
2023-03-14T12:49:53.281Z,98935.53
2023-03-14T12:52:22.758Z,98924.38
2023-03-14T12:55:21.706Z,98924.72
2023-03-14T12:58:18.535Z,98921.53
2023-03-14T13:00:46.348Z,98915.06
2023-03-14T13:03:16.254Z,98915.75
2023-03-14T13:06:00.786Z,98917.75
2023-03-14T13:08:40.841Z,98922.53
2023-03-14T13:11:21.036Z,98923.50
2023-03-14T13:13:51.032Z,98924.78
2023-03-14T13:16:20.845Z,98913.53
2023-03-14T13:18:52.934Z,98912.38
2023-03-14T13:21:21.198Z,98902.00
2023-03-14T13:24:03.085Z,98905.31
2023-03-14T13:26:35.492Z,98902.19
2023-03-14T13:29:18.167Z,98904.75
2023-03-14T13:31:50.555Z,98904.47
2023-03-14T13:34:18.318Z,98903.13
2023-03-14T13:36:45.796Z,98907.50
2023-03-14T13:39:23.078Z,98902.41
2023-03-14T13:41:50.513Z,98903.19
2023-03-14T13:44:39.612Z,98907.41
2023-03-14T13:47:18.818Z,98905.97
2023-03-14T13:49:46.448Z,98906.25
2023-03-14T13:52:29.148Z,98910.56
2023-03-14T13:54:57.418Z,98904.97
2023-03-14T13:57:24.957Z,98908.41
2023-03-14T14:00:07.203Z,98912.19
2023-03-14T14:02:35.092Z,98907.09
2023-03-14T14:05:02.698Z,98895.87
2023-03-14T14:07:29.995Z,98910.22
2023-03-14T14:09:57.510Z,98902.47
2023-03-14T14:12:30.105Z,98900.38
2023-03-14T14:15:12.117Z,98896.91
2023-03-14T14:17:42.644Z,98894.53
2023-03-14T14:20:37.447Z,98890.63
2023-03-14T14:23:06.684Z,98884.06
2023-03-14T14:25:34.308Z,98887.81
2023-03-14T14:28:16.149Z,98885.59
2023-03-14T14:30:44.842Z,98889.84
2023-03-14T14:33:22.289Z,98892.88
2023-03-14T14:35:56.453Z,98888.91
2023-03-14T14:38:23.567Z,98883.75
2023-03-14T14:40:54.138Z,98886.38
2023-03-14T14:43:26.977Z,98878.91
2023-03-14T14:45:58.908Z,98882.31
2023-03-14T14:48:28.221Z,98889.22
2023-03-14T14:51:03.673Z,98886.31
2023-03-14T14:53:44.111Z,98870.06
2023-03-14T14:56:26.132Z,98870.22
2023-03-14T14:59:00.888Z,98872.41
2023-03-14T15:01:37.303Z,98866.56
2023-03-14T15:04:16.023Z,98876.56
2023-03-14T15:06:45.008Z,98873.00
2023-03-14T15:09:12.887Z,98873.97
2023-03-14T15:11:40.069Z,98873.41
2023-03-14T15:14:08.016Z,98876.22
2023-03-14T15:16:35.667Z,98879.03
2023-03-14T15:19:17.948Z,98880.09
2023-03-14T15:21:51.079Z,98878.31
2023-03-14T15:24:18.248Z,98883.91
2023-03-14T15:26:45.576Z,98876.09
2023-03-14T15:29:13.551Z,98883.66
2023-03-14T15:31:41.698Z,98884.91
2023-03-14T15:34:09.892Z,98886.59
2023-03-14T15:36:38.969Z,98902.72
2023-03-14T15:39:07.427Z,98902.06
2023-03-14T15:41:35.128Z,98912.09
2023-03-14T15:44:03.057Z,98913.91
2023-03-14T15:46:31.322Z,98924.66
2023-03-14T15:48:58.690Z,98960.25
2023-03-14T15:51:26.151Z,98954.19
2023-03-14T15:53:53.363Z,98955.50
2023-03-14T15:56:21.338Z,98963.56
2023-03-14T15:58:48.999Z,98982.81
2023-03-14T16:01:17.334Z,98974.91
2023-03-14T16:03:46.123Z,98976.53
2023-03-14T16:06:14.437Z,98964.69
2023-03-14T16:08:43.294Z,98958.53
2023-03-14T16:11:12.682Z,98963.72
2023-03-14T16:13:40.027Z,98978.59
2023-03-14T16:16:08.302Z,98987.41
2023-03-14T16:18:37.916Z,98992.16
2023-03-14T16:21:13.139Z,98994.91
2023-03-14T16:23:40.729Z,98994.84
2023-03-14T16:26:10.693Z,98996.25
2023-03-14T16:28:38.669Z,99005.38
2023-03-14T16:31:08.761Z,99011.16
2023-03-14T16:33:37.911Z,99004.06
2023-03-14T16:36:08.603Z,99024.97
2023-03-14T16:38:37.384Z,99022.56
2023-03-14T16:41:08.525Z,99044.25
2023-03-14T16:43:39.184Z,99051.62
2023-03-14T16:46:08.737Z,99055.41
2023-03-14T16:48:36.307Z,99059.59
2023-03-14T16:51:03.533Z,99066.84
2023-03-14T16:53:30.804Z,99075.16
2023-03-14T16:55:59.253Z,99084.06
2023-03-14T16:58:27.266Z,99081.75
2023-03-14T17:00:54.591Z,99096.59
2023-03-14T17:03:22.189Z,99097.03
2023-03-14T17:05:51.087Z,99093.19
2023-03-14T17:08:19.921Z,99104.50
2023-03-14T17:10:47.520Z,99093.97
2023-03-14T17:13:14.772Z,99094.13
2023-03-14T17:15:46.580Z,99107.59
2023-03-14T17:18:14.365Z,99091.25
2023-03-14T17:20:41.591Z,99090.84
2023-03-14T17:23:09.183Z,99096.09
2023-03-14T17:25:37.745Z,99092.38
2023-03-14T17:28:06.134Z,99099.63
2023-03-14T17:30:33.876Z,99101.84
2023-03-14T17:33:01.498Z,99105.69
2023-03-14T17:35:28.805Z,99101.28
2023-03-14T17:37:56.022Z,99101.84
2023-03-14T17:40:23.983Z,99106.50
2023-03-14T17:42:51.513Z,99099.06
2023-03-14T17:45:19.029Z,99107.06
2023-03-14T17:47:46.746Z,99102.78
2023-03-14T17:50:14.715Z,99111.09
2023-03-14T17:52:42.047Z,99100.41
2023-03-14T17:55:10.269Z,99106.16
2023-03-14T17:57:43.258Z,99107.22
2023-03-14T18:00:11.888Z,99100.22
2023-03-14T18:02:41.400Z,99101.09
2023-03-14T18:05:09.468Z,99104.25
2023-03-14T18:07:37.888Z,99099.03
2023-03-14T18:10:06.779Z,99105.62
2023-03-14T18:12:34.269Z,99103.94
2023-03-14T18:15:01.460Z,99102.84
2023-03-14T18:17:28.900Z,99105.59
2023-03-14T18:19:57.715Z,99104.63
2023-03-14T18:22:25.601Z,99105.59
2023-03-14T18:24:53.213Z,99102.97
2023-03-14T18:27:20.699Z,99102.53
2023-03-14T18:29:47.876Z,99108.28
2023-03-14T18:32:16.607Z,99093.47
2023-03-14T18:34:44.267Z,99099.13
2023-03-14T18:37:11.447Z,99083.62
2023-03-14T18:39:38.818Z,99090.22
2023-03-14T18:42:06.314Z,99087.19
2023-03-14T18:44:33.554Z,99081.69
2023-03-14T18:47:01.632Z,99089.66
2023-03-14T18:49:29.298Z,99085.53
2023-03-14T18:51:56.479Z,99089.06
2023-03-14T18:54:23.718Z,99099.25
2023-03-14T18:56:51.798Z,99094.72
2023-03-14T18:59:19.431Z,99096.22
2023-03-14T19:01:46.667Z,99089.34
2023-03-14T19:04:14.271Z,99089.50
2023-03-14T19:06:41.751Z,99079.75
2023-03-14T19:09:13.862Z,99074.53
2023-03-14T19:11:41.561Z,99072.38
2023-03-14T19:14:09.205Z,99080.28
2023-03-14T19:16:36.533Z,99078.91
2023-03-14T19:19:05.066Z,99088.91
2023-03-14T19:21:34.238Z,99078.34
2023-03-14T19:24:01.593Z,99084.78
2023-03-14T19:26:32.701Z,99079.69
2023-03-14T19:29:00.224Z,99087.34
2023-03-14T19:31:27.749Z,99092.03
2023-03-14T19:33:55.423Z,99091.38
2023-03-14T19:36:28.736Z,99086.75
2023-03-14T19:38:56.747Z,99092.50
2023-03-14T19:41:25.065Z,99093.16
2023-03-14T19:43:52.906Z,99096.56
2023-03-14T19:46:21.851Z,99083.69
2023-03-14T19:48:50.098Z,99086.53
2023-03-14T19:51:17.311Z,99081.94
2023-03-14T19:53:44.779Z,99083.09
2023-03-14T19:56:12.287Z,99073.94
2023-03-14T19:58:40.486Z,99075.53
2023-03-14T20:01:08.769Z,99099.78
2023-03-14T20:03:36.729Z,99090.84
2023-03-14T20:06:08.892Z,99094.78
2023-03-14T20:08:36.400Z,99107.00
2023-03-14T20:11:05.014Z,99113.59
2023-03-14T20:13:32.785Z,99120.69
2023-03-14T20:16:03.929Z,99126.41
2023-03-14T20:18:31.355Z,99118.06
2023-03-14T20:20:59.046Z,99120.06
2023-03-14T20:23:26.700Z,99127.19
2023-03-14T20:25:55.678Z,99130.25
2023-03-14T20:28:23.346Z,99147.84
2023-03-14T20:30:51.189Z,99138.63
2023-03-14T20:33:21.321Z,99144.47
2023-03-14T20:35:57.061Z,99152.66
2023-03-14T20:38:26.689Z,99142.88
2023-03-14T20:40:58.462Z,99150.66
2023-03-14T20:43:26.450Z,99141.78
2023-03-14T20:45:55.124Z,99150.38
2023-03-14T20:48:22.769Z,99163.41
2023-03-14T20:50:50.396Z,99161.25
2023-03-14T20:53:18.246Z,99157.13
2023-03-14T20:55:45.786Z,99157.63
2023-03-14T20:58:13.629Z,99156.72
2023-03-14T21:00:45.109Z,99165.81
2023-03-14T21:03:14.416Z,99159.28
2023-03-14T21:05:42.868Z,99163.19
2023-03-14T21:08:11.856Z,99160.47
2023-03-14T21:10:39.440Z,99167.44
2023-03-14T21:13:06.857Z,99163.19
2023-03-14T21:15:34.092Z,99164.97
2023-03-14T21:18:05.542Z,99168.53
2023-03-14T21:20:34.056Z,99169.50
2023-03-14T21:23:01.608Z,99170.47
2023-03-14T21:25:29.157Z,99181.94
2023-03-14T21:27:56.736Z,99179.09
2023-03-14T21:30:24.594Z,99185.34
2023-03-14T21:32:52.006Z,99185.81
2023-03-14T21:35:19.248Z,99177.31
2023-03-14T21:37:47.231Z,99181.09
2023-03-14T21:40:15.041Z,99190.47
2023-03-14T21:42:42.255Z,99191.78
2023-03-14T21:45:10.279Z,99191.50
2023-03-14T21:47:37.571Z,99200.28
2023-03-14T21:50:05.136Z,99192.09
2023-03-14T21:52:33.672Z,99203.34
2023-03-14T21:55:03.655Z,99201.22
2023-03-14T21:57:31.007Z,99200.53
2023-03-14T21:59:59.019Z,99204.44
2023-03-14T22:02:26.508Z,99209.72
2023-03-14T22:04:54.632Z,99213.41
2023-03-14T22:07:21.860Z,99215.19
2023-03-14T22:09:49.627Z,99211.16
2023-03-14T22:12:19.374Z,99207.28
2023-03-14T22:14:47.437Z,99210.34
2023-03-14T22:17:15.246Z,99216.03
2023-03-14T22:19:42.707Z,99229.88
2023-03-14T22:22:09.938Z,99230.50
2023-03-14T22:24:37.136Z,99233.22
2023-03-14T22:27:04.687Z,99236.31
2023-03-14T22:29:31.926Z,99226.59
2023-03-14T22:31:59.120Z,99233.44
2023-03-14T22:34:31.545Z,99233.34
2023-03-14T22:37:04.093Z,99229.94
2023-03-14T22:39:32.570Z,99235.12
2023-03-14T22:42:00.739Z,99236.66
2023-03-14T22:44:32.649Z,99244.34
2023-03-14T22:47:01.116Z,99244.59
2023-03-14T22:49:30.659Z,99250.88
2023-03-14T22:51:57.944Z,99245.75
2023-03-14T22:54:25.430Z,99244.72
2023-03-14T22:56:52.587Z,99252.28
2023-03-14T22:59:19.787Z,99255.13
2023-03-14T23:01:47.251Z,99238.44
2023-03-14T23:04:14.431Z,99242.00
2023-03-14T23:06:41.601Z,99232.53
2023-03-14T23:09:09.309Z,99239.41
2023-03-14T23:11:39.675Z,99245.78
2023-03-14T23:14:06.898Z,99254.72
2023-03-14T23:16:40.513Z,99252.50
2023-03-14T23:19:09.839Z,99259.19
2023-03-14T23:21:37.439Z,99260.13
2023-03-14T23:24:06.098Z,99247.16
2023-03-14T23:26:36.142Z,99248.34
2023-03-14T23:29:07.346Z,99242.66
2023-03-14T23:31:34.640Z,99241.84
2023-03-14T23:34:01.928Z,99242.88
2023-03-14T23:36:29.747Z,99244.06
2023-03-14T23:38:57.085Z,99255.16
2023-03-14T23:41:24.192Z,99266.38
2023-03-14T23:43:51.634Z,99259.88
2023-03-14T23:46:18.835Z,99266.41
2023-03-14T23:48:48.757Z,99276.31
2023-03-14T23:51:17.089Z,99278.56
2023-03-14T23:53:44.335Z,99278.56
2023-03-14T23:56:13.554Z,99288.97
2023-03-14T23:58:41.521Z,99300.53
